createdAt,value
2023-04-24T00:01:59.962Z,10.50
2023-04-24T00:04:33.743Z,10.49
2023-04-24T00:07:08.078Z,10.51
2023-04-24T00:09:41.004Z,10.51
2023-04-24T00:12:14.119Z,10.50
2023-04-24T00:14:47.001Z,10.46
2023-04-24T00:17:21.370Z,10.39
2023-04-24T00:19:59.738Z,10.31
2023-04-24T00:22:33.260Z,10.19
2023-04-24T00:25:07.362Z,10.05
2023-04-24T00:27:40.304Z,9.97
2023-04-24T00:30:14.429Z,9.87
2023-04-24T00:32:47.316Z,9.87
2023-04-24T00:35:21.349Z,9.86
2023-04-24T00:37:53.924Z,9.87
2023-04-24T00:40:27.001Z,9.88
2023-04-24T00:42:59.804Z,9.86
2023-04-24T00:45:33.614Z,9.84
2023-04-24T00:48:06.725Z,9.82
2023-04-24T00:50:40.938Z,9.80
2023-04-24T00:53:13.528Z,9.78
2023-04-24T00:55:47.881Z,9.78
2023-04-24T00:58:21.015Z,9.80
2023-04-24T01:00:55.497Z,9.82
2023-04-24T01:03:31.883Z,9.76
2023-04-24T01:06:05.597Z,9.77
2023-04-24T01:08:37.539Z,9.81
2023-04-24T01:11:10.582Z,9.77
2023-04-24T01:13:44.934Z,9.78
2023-04-24T01:16:19.063Z,9.78
2023-04-24T01:18:51.611Z,9.77
2023-04-24T01:21:24.067Z,9.72
2023-04-24T01:23:57.981Z,9.62
2023-04-24T01:26:31.363Z,9.61
2023-04-24T01:29:04.183Z,9.60
2023-04-24T01:31:40.851Z,9.58
2023-04-24T01:34:13.613Z,9.53
2023-04-24T01:36:48.432Z,9.52
2023-04-24T01:39:24.503Z,9.50
2023-04-24T01:41:57.608Z,9.49
2023-04-24T01:44:31.009Z,9.47
2023-04-24T01:47:05.563Z,9.45
2023-04-24T01:49:38.250Z,9.42
2023-04-24T01:52:11.811Z,9.40
2023-04-24T01:54:46.043Z,9.39
2023-04-24T01:57:19.212Z,9.36
2023-04-24T01:59:51.854Z,9.30
2023-04-24T02:02:25.623Z,9.22
2023-04-24T02:04:58.815Z,9.20
2023-04-24T02:07:31.464Z,9.19
2023-04-24T02:10:05.325Z,9.16
2023-04-24T02:12:37.821Z,9.13
2023-04-24T02:15:11.909Z,9.10
2023-04-24T02:17:45.103Z,9.07
2023-04-24T02:20:18.910Z,9.05
2023-04-24T02:22:51.629Z,9.02
2023-04-24T02:25:26.448Z,8.98
2023-04-24T02:28:01.249Z,8.98
2023-04-24T02:30:33.906Z,8.96
2023-04-24T02:33:07.334Z,8.92
2023-04-24T02:35:39.903Z,8.86
2023-04-24T02:38:12.626Z,8.86
2023-04-24T02:40:45.365Z,8.83
2023-04-24T02:43:17.942Z,8.81
2023-04-24T02:45:51.053Z,8.78
2023-04-24T02:48:24.100Z,8.79
2023-04-24T02:50:58.992Z,8.80
2023-04-24T02:53:32.259Z,8.74
2023-04-24T02:56:31.824Z,8.65
2023-04-24T02:59:05.385Z,8.43
2023-04-24T03:01:38.311Z,8.41
2023-04-24T03:04:11.963Z,8.38
2023-04-24T03:06:45.193Z,8.51
2023-04-24T03:09:17.566Z,8.70
2023-04-24T03:11:50.776Z,8.70
2023-04-24T03:14:23.956Z,8.60
2023-04-24T03:16:57.106Z,8.62
2023-04-24T03:19:29.750Z,8.70
2023-04-24T03:22:10.721Z,8.73
2023-04-24T03:24:44.049Z,8.73
2023-04-24T03:27:17.901Z,8.69
2023-04-24T03:30:00.836Z,8.70
2023-04-24T03:32:40.689Z,8.73
2023-04-24T03:35:14.617Z,8.72
2023-04-24T03:37:45.464Z,8.68
2023-04-24T03:40:48.270Z,8.56
2023-04-24T03:43:36.140Z,8.52
2023-04-24T03:46:10.812Z,8.55
2023-04-24T03:48:50.550Z,8.55
2023-04-24T03:51:24.484Z,8.55
2023-04-24T03:53:59.007Z,8.55
2023-04-24T03:56:34.457Z,8.54
2023-04-24T03:59:08.350Z,8.54
2023-04-24T04:01:44.115Z,8.54
2023-04-24T04:04:22.183Z,8.53
2023-04-24T04:06:54.935Z,8.53
2023-04-24T04:09:28.162Z,8.55
2023-04-24T04:12:01.991Z,8.58
2023-04-24T04:14:35.519Z,8.66
2023-04-24T04:17:10.896Z,8.77
2023-04-24T04:19:46.157Z,8.83
2023-04-24T04:22:19.477Z,8.90
2023-04-24T04:24:55.461Z,8.93
2023-04-24T04:27:28.337Z,9.00
2023-04-24T04:30:09.936Z,9.07
2023-04-24T04:33:03.943Z,9.11
2023-04-24T04:35:37.949Z,9.17
2023-04-24T04:38:12.261Z,9.21
2023-04-24T04:40:54.721Z,9.21
2023-04-24T04:43:28.020Z,9.19
2023-04-24T04:46:02.194Z,9.17
2023-04-24T04:48:45.380Z,9.25
2023-04-24T04:51:18.059Z,9.30
2023-04-24T04:53:50.772Z,9.37
2023-04-24T04:56:24.002Z,9.43
2023-04-24T04:58:55.276Z,9.54
2023-04-24T05:01:30.327Z,9.59
2023-04-24T05:04:03.405Z,9.73
2023-04-24T05:06:36.652Z,9.83
2023-04-24T05:09:10.969Z,10.04
2023-04-24T05:11:54.864Z,10.22
2023-04-24T05:14:29.291Z,10.42
2023-04-24T05:17:02.890Z,10.60
2023-04-24T05:19:37.260Z,10.83
2023-04-24T05:22:11.182Z,11.04
2023-04-24T05:24:51.364Z,11.28
2023-04-24T05:27:50.672Z,11.47
2023-04-24T05:30:23.932Z,11.62
2023-04-24T05:32:59.229Z,11.77
2023-04-24T05:35:33.618Z,11.89
2023-04-24T05:38:06.381Z,12.05
2023-04-24T05:40:38.913Z,12.18
2023-04-24T05:43:11.853Z,12.38
2023-04-24T05:45:44.400Z,12.47
2023-04-24T05:48:17.291Z,12.68
2023-04-24T05:50:49.881Z,12.78
2023-04-24T05:53:23.057Z,12.79
2023-04-24T05:55:57.021Z,12.97
2023-04-24T05:58:30.753Z,13.11
2023-04-24T06:01:03.985Z,13.30
2023-04-24T06:03:37.096Z,13.48
2023-04-24T06:06:10.681Z,13.56
2023-04-24T06:08:44.170Z,13.70
2023-04-24T06:11:17.304Z,13.77
2023-04-24T06:13:50.209Z,13.95
2023-04-24T06:16:50.322Z,14.22
2023-04-24T06:19:34.727Z,14.45
2023-04-24T06:22:08.503Z,14.46
2023-04-24T06:24:44.972Z,14.41
2023-04-24T06:27:17.593Z,14.57
2023-04-24T06:29:55.825Z,14.65
2023-04-24T06:32:29.901Z,14.77
2023-04-24T06:35:05.998Z,15.03
2023-04-24T06:37:50.851Z,15.11
2023-04-24T06:40:22.214Z,15.09
2023-04-24T06:42:55.132Z,15.03
2023-04-24T06:45:27.961Z,15.17
2023-04-24T06:48:00.912Z,15.24
2023-04-24T06:50:33.903Z,15.46
2023-04-24T06:53:06.585Z,15.66
2023-04-24T06:55:42.139Z,15.70
2023-04-24T06:58:16.407Z,15.76
2023-04-24T07:00:49.243Z,16.03
2023-04-24T07:03:22.873Z,16.27
2023-04-24T07:05:57.982Z,16.36
2023-04-24T07:08:31.821Z,16.47
2023-04-24T07:11:07.300Z,16.63
2023-04-24T07:13:43.143Z,16.52
2023-04-24T07:16:16.435Z,16.63
2023-04-24T07:18:48.882Z,16.71
2023-04-24T07:21:24.108Z,16.68
2023-04-24T07:23:56.593Z,16.77
2023-04-24T07:26:30.669Z,16.96
2023-04-24T07:29:03.746Z,17.05
2023-04-24T07:31:36.586Z,17.23
2023-04-24T07:34:10.052Z,17.38
2023-04-24T07:36:43.689Z,17.32
2023-04-24T07:39:16.322Z,17.35
2023-04-24T07:41:49.678Z,17.38
2023-04-24T07:44:20.612Z,17.44
2023-04-24T07:46:53.597Z,17.21
2023-04-24T07:49:26.384Z,17.36
2023-04-24T07:52:01.373Z,17.54
2023-04-24T07:54:34.139Z,17.68
2023-04-24T07:57:08.194Z,17.71
2023-04-24T07:59:41.636Z,17.72
2023-04-24T08:02:14.844Z,17.71
2023-04-24T08:04:47.636Z,18.02
2023-04-24T08:07:22.129Z,17.91
2023-04-24T08:09:55.199Z,17.69
2023-04-24T08:12:28.061Z,17.76
2023-04-24T08:15:01.843Z,17.77
2023-04-24T08:17:36.776Z,17.78
2023-04-24T08:20:14.863Z,17.89
2023-04-24T08:22:48.999Z,18.24
2023-04-24T08:25:21.931Z,18.36
2023-04-24T08:27:54.690Z,18.62
2023-04-24T08:30:29.352Z,18.66
2023-04-24T08:33:02.278Z,18.61
2023-04-24T08:35:43.800Z,18.50
2023-04-24T08:38:16.621Z,18.40
2023-04-24T08:40:51.485Z,18.57
2023-04-24T08:43:27.291Z,18.52
2023-04-24T08:46:00.657Z,18.74
2023-04-24T08:48:34.496Z,19.02
2023-04-24T08:51:09.749Z,18.93
2023-04-24T08:53:43.455Z,19.43
2023-04-24T08:56:18.819Z,19.31
2023-04-24T08:58:52.553Z,19.31
2023-04-24T09:01:26.149Z,19.60
2023-04-24T09:04:01.991Z,19.56
2023-04-24T09:06:35.721Z,19.56
2023-04-24T09:09:09.204Z,19.47
2023-04-24T09:11:42.631Z,19.59
2023-04-24T09:14:15.981Z,19.70
2023-04-24T09:16:49.166Z,19.57
2023-04-24T09:19:20.864Z,19.60
2023-04-24T09:21:55.574Z,19.38
2023-04-24T09:24:28.632Z,19.27
2023-04-24T09:27:04.022Z,19.42
2023-04-24T09:29:37.028Z,19.58
2023-04-24T09:35:19.324Z,19.70
2023-04-24T09:37:52.083Z,19.63
2023-04-24T09:40:28.100Z,19.54
2023-04-24T09:43:03.875Z,19.41
2023-04-24T09:45:42.528Z,19.59
2023-04-24T09:48:15.427Z,19.64
2023-04-24T09:50:54.708Z,19.45
2023-04-24T09:53:30.585Z,19.42
2023-04-24T09:56:09.817Z,19.20
2023-04-24T09:58:42.777Z,19.18
2023-04-24T10:01:15.802Z,19.49
2023-04-24T10:03:48.767Z,19.40
2023-04-24T10:06:21.832Z,19.33
2023-04-24T10:08:54.796Z,19.44
2023-04-24T10:11:28.343Z,19.61
2023-04-24T10:14:01.688Z,19.66
2023-04-24T10:16:32.749Z,20.00
2023-04-24T10:19:06.440Z,20.04
2023-04-24T10:21:43.755Z,20.32
2023-04-24T10:24:17.196Z,20.22
2023-04-24T10:26:50.932Z,20.35
2023-04-24T10:29:26.392Z,20.32
2023-04-24T10:31:59.445Z,20.42
2023-04-24T10:34:32.682Z,20.49
2023-04-24T10:37:07.686Z,20.51
2023-04-24T10:39:41.932Z,20.33
2023-04-24T10:42:20.499Z,20.28
2023-04-24T10:44:53.844Z,20.28
2023-04-24T10:47:26.940Z,20.20
2023-04-24T10:50:04.408Z,19.97
2023-04-24T10:52:52.740Z,20.08
2023-04-24T10:55:45.370Z,20.21
2023-04-24T10:58:19.162Z,20.22
2023-04-24T11:01:01.718Z,20.33
2023-04-24T11:03:35.728Z,20.31
2023-04-24T11:06:10.294Z,20.15
2023-04-24T11:08:45.759Z,20.13
2023-04-24T11:11:22.164Z,20.34
2023-04-24T11:14:13.700Z,20.16
2023-04-24T11:16:54.158Z,20.09
2023-04-24T11:19:31.067Z,20.43
2023-04-24T11:22:06.623Z,20.50
2023-04-24T11:24:53.663Z,20.74
2023-04-24T11:27:32.507Z,20.67
2023-04-24T11:30:07.366Z,20.48
2023-04-24T11:32:43.134Z,20.32
2023-04-24T11:35:19.591Z,20.52
2023-04-24T11:38:13.074Z,20.58
2023-04-24T11:40:47.419Z,20.48
2023-04-24T11:43:21.487Z,20.58
2023-04-24T11:45:55.773Z,20.85
2023-04-24T11:48:28.638Z,20.59
2023-04-24T11:51:04.457Z,20.53
2023-04-24T11:53:39.301Z,20.50
2023-04-24T11:56:13.604Z,20.36
2023-04-24T11:58:47.328Z,20.48
2023-04-24T12:01:19.940Z,20.47
2023-04-24T12:04:02.370Z,20.38
2023-04-24T12:06:36.228Z,20.39
2023-04-24T12:09:17.670Z,20.56
2023-04-24T12:11:59.898Z,20.73
2023-04-24T12:14:33.255Z,20.33
2023-04-24T12:17:07.687Z,20.02
2023-04-24T12:19:40.640Z,20.14
2023-04-24T12:22:14.878Z,20.29
2023-04-24T12:25:05.409Z,20.43
2023-04-24T12:27:37.921Z,20.59
2023-04-24T12:30:16.540Z,20.40
2023-04-24T12:32:50.993Z,20.36
2023-04-24T12:35:27.078Z,20.45
2023-04-24T12:38:07.811Z,20.59
2023-04-24T12:40:40.842Z,20.63
2023-04-24T12:43:20.595Z,20.39
2023-04-24T12:45:56.457Z,20.24
2023-04-24T12:48:29.702Z,20.27
2023-04-24T12:51:03.617Z,20.24
2023-04-24T12:53:36.432Z,20.11
2023-04-24T12:56:09.547Z,19.96
2023-04-24T12:58:42.542Z,20.04
2023-04-24T13:01:15.724Z,20.03
2023-04-24T13:03:48.535Z,19.92
2023-04-24T13:06:19.357Z,20.02
2023-04-24T13:08:52.896Z,20.06
2023-04-24T13:11:25.887Z,20.10
2023-04-24T13:13:59.432Z,20.15
2023-04-24T13:16:32.527Z,20.21
2023-04-24T13:19:05.468Z,20.38
2023-04-24T13:21:38.530Z,20.40
2023-04-24T13:24:11.472Z,20.37
2023-04-24T13:26:42.285Z,20.29
2023-04-24T13:29:15.355Z,20.19
2023-04-24T13:31:49.725Z,20.24
2023-04-24T13:34:22.842Z,20.15
2023-04-24T13:36:56.878Z,20.16
2023-04-24T13:39:30.815Z,20.07
2023-04-24T13:42:05.078Z,20.03
2023-04-24T13:44:38.351Z,19.99
2023-04-24T13:47:11.168Z,19.89
2023-04-24T13:49:46.356Z,19.76
2023-04-24T13:52:19.516Z,19.63
2023-04-24T13:54:52.232Z,19.60
2023-04-24T13:57:25.635Z,19.76
2023-04-24T14:00:02.803Z,19.78
2023-04-24T14:02:40.941Z,19.66
2023-04-24T14:05:22.932Z,19.76
2023-04-24T14:07:58.793Z,19.50
2023-04-24T14:10:32.168Z,19.44
2023-04-24T14:13:05.303Z,19.32
2023-04-24T14:15:41.846Z,19.19
2023-04-24T14:18:14.957Z,19.08
2023-04-24T14:20:49.419Z,18.98
2023-04-24T14:23:22.858Z,18.67
2023-04-24T14:25:57.292Z,18.50
2023-04-24T14:28:31.467Z,18.47
2023-04-24T14:31:04.421Z,18.43
2023-04-24T14:33:35.408Z,18.24
2023-04-24T14:36:08.959Z,18.12
2023-04-24T14:38:41.724Z,18.23
2023-04-24T14:41:15.127Z,18.36
2023-04-24T14:43:48.044Z,18.29
2023-04-24T14:46:19.171Z,18.29
2023-04-24T14:48:52.202Z,18.23
2023-04-24T14:51:25.637Z,18.20
2023-04-24T14:53:58.912Z,18.29
2023-04-24T14:56:29.751Z,18.29
2023-04-24T14:59:05.521Z,18.22
2023-04-24T15:01:38.816Z,18.25
2023-04-24T15:04:11.800Z,18.28
2023-04-24T15:06:46.484Z,18.27
2023-04-24T15:09:19.475Z,18.17
2023-04-24T15:11:52.453Z,18.06
2023-04-24T15:14:25.354Z,18.04
2023-04-24T15:16:58.599Z,17.93
2023-04-24T15:19:31.424Z,17.94
2023-04-24T15:22:03.950Z,17.91
2023-04-24T15:24:36.579Z,17.80
2023-04-24T15:27:11.984Z,17.72
2023-04-24T15:29:44.896Z,17.63
2023-04-24T15:32:17.819Z,17.63
2023-04-24T15:34:56.778Z,17.60
2023-04-24T15:37:37.585Z,17.55
2023-04-24T15:40:14.640Z,17.55
2023-04-24T15:42:47.758Z,17.56
2023-04-24T15:45:20.571Z,17.59
2023-04-24T15:47:54.289Z,17.62
2023-04-24T15:50:28.760Z,17.59
2023-04-24T15:53:04.726Z,17.57
2023-04-24T15:55:39.269Z,17.53
2023-04-24T15:58:12.016Z,17.56
2023-04-24T16:00:47.881Z,17.49
2023-04-24T16:03:21.429Z,17.47
2023-04-24T16:05:54.688Z,17.47
2023-04-24T16:08:27.933Z,17.42
2023-04-24T16:10:59.241Z,17.35
2023-04-24T16:13:32.387Z,17.23
2023-04-24T16:16:03.272Z,17.20
2023-04-24T16:18:35.892Z,17.09
2023-04-24T16:21:10.841Z,17.08
2023-04-24T16:23:43.837Z,17.06
2023-04-24T16:26:14.791Z,17.04
2023-04-24T16:28:47.842Z,16.95
2023-04-24T16:31:18.837Z,16.97
2023-04-24T16:33:51.880Z,16.85
2023-04-24T16:36:24.591Z,16.85
2023-04-24T16:38:58.070Z,16.85
2023-04-24T16:41:30.819Z,16.82
2023-04-24T16:44:03.740Z,16.80
2023-04-24T16:46:36.719Z,16.78
2023-04-24T16:49:12.161Z,16.75
2023-04-24T16:51:44.728Z,16.75
2023-04-24T16:54:17.641Z,16.74
2023-04-24T16:56:50.342Z,16.71
2023-04-24T16:59:23.986Z,16.66
2023-04-24T17:01:56.668Z,16.57
2023-04-24T17:04:29.573Z,16.51
2023-04-24T17:07:02.633Z,16.49
2023-04-24T17:09:37.338Z,16.44
2023-04-24T17:12:11.350Z,16.33
2023-04-24T17:14:44.459Z,16.20
2023-04-24T17:17:18.758Z,16.11
2023-04-24T17:19:53.245Z,16.00
2023-04-24T17:22:26.511Z,15.91
2023-04-24T17:24:59.190Z,15.78
2023-04-24T17:27:31.858Z,15.67
2023-04-24T17:30:06.396Z,15.54
2023-04-24T17:32:39.570Z,15.48
2023-04-24T17:35:13.898Z,15.39
2023-04-24T17:37:47.893Z,15.34
2023-04-24T17:40:21.845Z,15.28
2023-04-24T17:42:54.821Z,15.17
2023-04-24T17:45:36.194Z,15.15
2023-04-24T17:48:09.729Z,15.14
2023-04-24T17:50:45.238Z,15.04
2023-04-24T17:53:19.236Z,15.03
2023-04-24T17:55:54.603Z,14.99
2023-04-24T17:58:31.012Z,14.95
2023-04-24T18:01:04.445Z,14.94
2023-04-24T18:03:39.342Z,14.92
2023-04-24T18:06:12.632Z,14.90
2023-04-24T18:08:46.253Z,14.86
2023-04-24T18:11:22.949Z,14.82
2023-04-24T18:14:00.598Z,14.78
2023-04-24T18:16:34.300Z,14.73
2023-04-24T18:19:09.402Z,14.66
2023-04-24T18:21:44.226Z,14.58
2023-04-24T18:24:18.146Z,14.50
2023-04-24T18:26:51.030Z,14.46
2023-04-24T18:29:25.551Z,14.41
2023-04-24T18:31:58.263Z,14.37
2023-04-24T18:34:31.919Z,14.34
2023-04-24T18:37:14.547Z,14.29
2023-04-24T18:40:08.810Z,14.24
2023-04-24T18:42:49.829Z,14.23
2023-04-24T18:45:24.287Z,14.21
2023-04-24T18:47:59.873Z,14.15
2023-04-24T18:50:34.784Z,14.11
2023-04-24T18:53:10.008Z,14.12
2023-04-24T18:55:43.790Z,14.10
2023-04-24T18:58:17.150Z,14.09
2023-04-24T19:00:55.885Z,14.09
2023-04-24T19:03:31.108Z,14.08
2023-04-24T19:06:04.691Z,14.08
2023-04-24T19:08:43.196Z,14.07
2023-04-24T19:11:17.618Z,14.07
2023-04-24T19:13:50.124Z,14.07
2023-04-24T19:16:26.151Z,14.06
2023-04-24T19:19:00.427Z,14.04
2023-04-24T19:21:33.787Z,14.03
2023-04-24T19:24:06.564Z,14.02
2023-04-24T19:26:39.443Z,14.02
2023-04-24T19:29:14.846Z,14.02
2023-04-24T19:31:47.252Z,14.01
2023-04-24T19:34:27.086Z,14.01
2023-04-24T19:37:01.333Z,14.01
2023-04-24T19:39:33.989Z,14.01
2023-04-24T19:42:08.143Z,14.01
2023-04-24T19:44:41.432Z,13.99
2023-04-24T19:47:14.663Z,13.98
2023-04-24T19:49:47.882Z,13.95
2023-04-24T19:52:21.655Z,13.93
2023-04-24T19:54:52.969Z,13.93
2023-04-24T19:57:25.558Z,13.87
2023-04-24T19:59:58.335Z,13.90
2023-04-24T20:05:04.228Z,13.88
2023-04-24T20:07:38.548Z,13.80
2023-04-24T20:10:14.880Z,13.78
2023-04-24T20:12:47.579Z,13.75
2023-04-24T20:15:20.411Z,13.70
2023-04-24T20:17:53.172Z,13.68
2023-04-24T20:20:25.811Z,13.66
2023-04-24T20:22:59.044Z,13.60
2023-04-24T20:25:31.862Z,13.58
2023-04-24T20:28:05.367Z,13.54
2023-04-24T20:30:38.812Z,13.48
2023-04-24T20:33:09.447Z,13.42
2023-04-24T20:35:42.254Z,13.33
2023-04-24T20:38:15.914Z,13.32
2023-04-24T20:40:57.880Z,13.29
2023-04-24T20:43:31.604Z,13.27
2023-04-24T20:46:06.463Z,13.26
2023-04-24T20:48:39.017Z,13.23
2023-04-24T20:51:11.624Z,13.18
2023-04-24T20:53:44.075Z,13.14
2023-04-24T20:56:17.100Z,13.09
2023-04-24T20:58:50.995Z,13.05
2023-04-24T21:01:25.168Z,13.01
2023-04-24T21:03:57.649Z,12.98
2023-04-24T21:06:30.212Z,12.94
2023-04-24T21:09:03.463Z,12.92
2023-04-24T21:11:36.125Z,12.90
2023-04-24T21:14:08.930Z,12.86
2023-04-24T21:16:41.663Z,12.85
2023-04-24T21:19:14.151Z,12.83
2023-04-24T21:21:47.000Z,12.82
2023-04-24T21:24:19.509Z,12.81
2023-04-24T21:26:53.971Z,12.78
2023-04-24T21:29:27.260Z,12.77
2023-04-24T21:31:59.727Z,12.77
2023-04-24T21:34:32.700Z,12.74
2023-04-24T21:37:05.391Z,12.72
2023-04-24T21:39:37.846Z,12.72
2023-04-24T21:42:12.286Z,12.68
2023-04-24T21:44:47.899Z,12.61
2023-04-24T21:47:20.520Z,12.59
2023-04-24T21:49:53.014Z,12.57
2023-04-24T21:52:25.914Z,12.54
2023-04-24T21:54:58.439Z,12.50
2023-04-24T21:57:31.250Z,12.45
2023-04-24T22:00:04.932Z,12.41
2023-04-24T22:02:57.605Z,12.37
2023-04-24T22:05:31.179Z,12.38
2023-04-24T22:08:03.671Z,12.38
2023-04-24T22:10:36.324Z,12.38
2023-04-24T22:13:08.867Z,12.36
2023-04-24T22:15:41.485Z,12.36
2023-04-24T22:18:18.709Z,12.33
2023-04-24T22:20:52.074Z,12.32
2023-04-24T22:23:25.858Z,12.34
2023-04-24T22:25:58.573Z,12.34
2023-04-24T22:28:31.011Z,12.36
2023-04-24T22:31:04.140Z,12.34
2023-04-24T22:33:36.726Z,12.33
2023-04-24T22:36:10.482Z,12.32
2023-04-24T22:38:42.831Z,12.30
2023-04-24T22:41:15.541Z,12.27
2023-04-24T22:43:48.305Z,12.23
2023-04-24T22:46:21.386Z,12.20
2023-04-24T22:48:53.872Z,12.17
2023-04-24T22:51:27.929Z,12.17
2023-04-24T22:54:00.415Z,12.15
2023-04-24T22:56:33.409Z,12.15
2023-04-24T22:59:06.981Z,12.17
2023-04-24T23:01:39.728Z,12.18
2023-04-24T23:04:13.669Z,12.19
2023-04-24T23:06:46.449Z,12.20
2023-04-24T23:09:19.524Z,12.23
2023-04-24T23:11:52.338Z,12.23
2023-04-24T23:14:25.415Z,12.24
2023-04-24T23:16:58.708Z,12.21
2023-04-24T23:19:31.442Z,12.15
2023-04-24T23:22:05.654Z,12.09
2023-04-24T23:24:38.323Z,12.06
2023-04-24T23:27:10.896Z,12.06
2023-04-24T23:29:43.670Z,12.06
2023-04-24T23:32:16.622Z,12.06
2023-04-24T23:34:49.211Z,12.04
2023-04-24T23:37:23.514Z,12.04
2023-04-24T23:39:56.085Z,12.03
2023-04-24T23:42:28.478Z,12.03
2023-04-24T23:45:00.839Z,12.01
2023-04-24T23:47:33.913Z,12.01
2023-04-24T23:50:09.140Z,12.01
2023-04-24T23:52:42.252Z,12.01
2023-04-24T23:55:15.258Z,12.00
2023-04-24T23:57:47.946Z,11.98
